sensor_id;sensor_type;location;lat;lon;timestamp;P1;durP1;ratioP1;P2;durP2;ratioP2
40022;SDS011;25713;-35.352;149.036;2023-08-06T00:02:03;1.70;;;0.70;;
40022;SDS011;25713;-35.352;149.036;2023-08-06T00:04:32;2.45;;;0.80;;
40022;SDS011;25713;-35.352;149.036;2023-08-06T00:07:02;1.08;;;0.68;;
40022;SDS011;25713;-35.352;149.036;2023-08-06T00:09:32;3.08;;;0.82;;
40022;SDS011;25713;-35.352;149.036;2023-08-06T00:12:01;2.45;;;0.85;;
40022;SDS011;25713;-35.352;149.036;2023-08-06T00:14:33;1.38;;;0.80;;
40022;SDS011;25713;-35.352;149.036;2023-08-06T00:17:03;1.75;;;0.80;;
40022;SDS011;25713;-35.352;149.036;2023-08-06T00:19:32;1.40;;;0.65;;
40022;SDS011;25713;-35.352;149.036;2023-08-06T00:22:02;2.17;;;0.73;;
40022;SDS011;25713;-35.352;149.036;2023-08-06T00:24:31;1.38;;;0.70;;
40022;SDS011;25713;-35.352;149.036;2023-08-06T00:27:01;2.05;;;1.15;;
40022;SDS011;25713;-35.352;149.036;2023-08-06T00:29:33;1.63;;;1.07;;
40022;SDS011;25713;-35.352;149.036;2023-08-06T00:32:02;2.22;;;0.98;;
40022;SDS011;25713;-35.352;149.036;2023-08-06T00:34:32;0.80;;;0.80;;
40022;SDS011;25713;-35.352;149.036;2023-08-06T00:37:03;2.03;;;0.73;;
40022;SDS011;25713;-35.352;149.036;2023-08-06T00:39:32;2.42;;;1.00;;
40022;SDS011;25713;-35.352;149.036;2023-08-06T00:42:02;1.15;;;0.80;;
40022;SDS011;25713;-35.352;149.036;2023-08-06T00:44:33;3.38;;;0.95;;
40022;SDS011;25713;-35.352;149.036;2023-08-06T00:47:03;1.55;;;0.90;;
40022;SDS011;25713;-35.352;149.036;2023-08-06T00:49:33;1.45;;;0.80;;
40022;SDS011;25713;-35.352;149.036;2023-08-06T00:52:04;2.20;;;0.80;;
40022;SDS011;25713;-35.352;149.036;2023-08-06T00:54:37;3.83;;;1.02;;
40022;SDS011;25713;-35.352;149.036;2023-08-06T00:57:09;2.55;;;0.90;;
40022;SDS011;25713;-35.352;149.036;2023-08-06T00:59:39;0.85;;;0.75;;
40022;SDS011;25713;-35.352;149.036;2023-08-06T01:02:08;1.10;;;0.80;;
40022;SDS011;25713;-35.352;149.036;2023-08-06T01:04:38;1.13;;;0.77;;
40022;SDS011;25713;-35.352;149.036;2023-08-06T01:07:15;2.50;;;0.70;;
40022;SDS011;25713;-35.352;149.036;2023-08-06T01:09:55;1.38;;;0.93;;
40022;SDS011;25713;-35.352;149.036;2023-08-06T01:12:38;2.03;;;0.90;;
40022;SDS011;25713;-35.352;149.036;2023-08-06T01:15:15;1.63;;;1.05;;
40022;SDS011;25713;-35.352;149.036;2023-08-06T01:17:49;0.90;;;0.80;;
40022;SDS011;25713;-35.352;149.036;2023-08-06T01:20:22;1.85;;;1.00;;
40022;SDS011;25713;-35.352;149.036;2023-08-06T01:22:58;1.08;;;0.98;;
40022;SDS011;25713;-35.352;149.036;2023-08-06T01:25:29;1.60;;;1.10;;
40022;SDS011;25713;-35.352;149.036;2023-08-06T01:28:04;0.88;;;0.88;;
40022;SDS011;25713;-35.352;149.036;2023-08-06T01:30:39;1.35;;;1.00;;
40022;SDS011;25713;-35.352;149.036;2023-08-06T01:33:12;2.15;;;0.95;;
40022;SDS011;25713;-35.352;149.036;2023-08-06T01:35:48;2.22;;;0.95;;
40022;SDS011;25713;-35.352;149.036;2023-08-06T01:38:18;1.17;;;0.93;;
40022;SDS011;25713;-35.352;149.036;2023-08-06T01:40:48;1.75;;;0.93;;
40022;SDS011;25713;-35.352;149.036;2023-08-06T01:43:17;3.45;;;0.98;;
40022;SDS011;25713;-35.352;149.036;2023-08-06T01:45:47;1.88;;;1.10;;
40022;SDS011;25713;-35.352;149.036;2023-08-06T01:48:16;1.45;;;1.00;;
40022;SDS011;25713;-35.352;149.036;2023-08-06T01:50:46;1.85;;;1.00;;
40022;SDS011;25713;-35.352;149.036;2023-08-06T01:53:17;1.27;;;1.15;;
40022;SDS011;25713;-35.352;149.036;2023-08-06T01:55:48;1.20;;;1.00;;
40022;SDS011;25713;-35.352;149.036;2023-08-06T01:58:17;2.35;;;1.10;;
40022;SDS011;25713;-35.352;149.036;2023-08-06T02:00:47;1.33;;;1.10;;
40022;SDS011;25713;-35.352;149.036;2023-08-06T02:03:16;1.17;;;1.05;;
40022;SDS011;25713;-35.352;149.036;2023-08-06T02:08:19;1.23;;;1.00;;
40022;SDS011;25713;-35.352;149.036;2023-08-06T02:10:48;1.20;;;0.90;;
40022;SDS011;25713;-35.352;149.036;2023-08-06T02:13:18;1.00;;;0.82;;
40022;SDS011;25713;-35.352;149.036;2023-08-06T02:15:48;2.35;;;1.50;;
40022;SDS011;25713;-35.352;149.036;2023-08-06T02:18:17;2.22;;;1.00;;
40022;SDS011;25713;-35.352;149.036;2023-08-06T02:20:57;1.00;;;0.90;;
40022;SDS011;25713;-35.352;149.036;2023-08-06T02:23:26;1.65;;;1.10;;
40022;SDS011;25713;-35.352;149.036;2023-08-06T02:25:59;1.20;;;1.00;;
40022;SDS011;25713;-35.352;149.036;2023-08-06T02:28:30;1.52;;;1.23;;
40022;SDS011;25713;-35.352;149.036;2023-08-06T02:30:59;1.10;;;0.82;;
40022;SDS011;25713;-35.352;149.036;2023-08-06T02:33:29;1.45;;;1.10;;
40022;SDS011;25713;-35.352;149.036;2023-08-06T02:36:04;1.33;;;0.95;;
40022;SDS011;25713;-35.352;149.036;2023-08-06T02:38:33;3.67;;;1.00;;
40022;SDS011;25713;-35.352;149.036;2023-08-06T02:41:03;2.58;;;1.27;;
40022;SDS011;25713;-35.352;149.036;2023-08-06T02:43:33;1.20;;;1.10;;
40022;SDS011;25713;-35.352;149.036;2023-08-06T02:46:02;1.52;;;1.02;;
40022;SDS011;25713;-35.352;149.036;2023-08-06T02:48:32;1.17;;;1.00;;
40022;SDS011;25713;-35.352;149.036;2023-08-06T02:51:04;2.15;;;1.25;;
40022;SDS011;25713;-35.352;149.036;2023-08-06T02:53:34;1.40;;;1.13;;
40022;SDS011;25713;-35.352;149.036;2023-08-06T02:56:08;1.88;;;1.13;;
40022;SDS011;25713;-35.352;149.036;2023-08-06T02:58:57;0.95;;;0.85;;
40022;SDS011;25713;-35.352;149.036;2023-08-06T03:01:40;1.17;;;0.90;;
40022;SDS011;25713;-35.352;149.036;2023-08-06T03:04:17;1.95;;;1.00;;
40022;SDS011;25713;-35.352;149.036;2023-08-06T03:06:51;1.13;;;1.02;;
40022;SDS011;25713;-35.352;149.036;2023-08-06T03:09:24;2.25;;;1.10;;
40022;SDS011;25713;-35.352;149.036;2023-08-06T03:11:54;1.30;;;0.90;;
40022;SDS011;25713;-35.352;149.036;2023-08-06T03:14:23;1.23;;;0.90;;
40022;SDS011;25713;-35.352;149.036;2023-08-06T03:16:53;1.48;;;0.95;;
40022;SDS011;25713;-35.352;149.036;2023-08-06T03:19:22;1.52;;;1.00;;
40022;SDS011;25713;-35.352;149.036;2023-08-06T03:21:54;2.08;;;1.10;;
40022;SDS011;25713;-35.352;149.036;2023-08-06T03:24:23;1.67;;;1.20;;
40022;SDS011;25713;-35.352;149.036;2023-08-06T03:26:53;1.33;;;1.10;;
40022;SDS011;25713;-35.352;149.036;2023-08-06T03:29:25;1.30;;;1.07;;
40022;SDS011;25713;-35.352;149.036;2023-08-06T03:31:56;1.33;;;1.00;;
40022;SDS011;25713;-35.352;149.036;2023-08-06T03:34:25;2.00;;;1.20;;
40022;SDS011;25713;-35.352;149.036;2023-08-06T03:36:57;2.42;;;1.30;;
40022;SDS011;25713;-35.352;149.036;2023-08-06T03:39:28;1.40;;;1.10;;
40022;SDS011;25713;-35.352;149.036;2023-08-06T03:41:57;1.38;;;1.00;;
40022;SDS011;25713;-35.352;149.036;2023-08-06T03:44:27;1.45;;;1.10;;
40022;SDS011;25713;-35.352;149.036;2023-08-06T03:46:57;1.15;;;1.05;;
40022;SDS011;25713;-35.352;149.036;2023-08-06T03:49:26;1.67;;;1.08;;
40022;SDS011;25713;-35.352;149.036;2023-08-06T03:51:57;1.73;;;1.17;;
40022;SDS011;25713;-35.352;149.036;2023-08-06T03:54:27;1.73;;;1.17;;
40022;SDS011;25713;-35.352;149.036;2023-08-06T03:56:57;2.90;;;1.23;;
40022;SDS011;25713;-35.352;149.036;2023-08-06T03:59:26;2.15;;;1.45;;
40022;SDS011;25713;-35.352;149.036;2023-08-06T04:01:57;1.88;;;1.23;;
40022;SDS011;25713;-35.352;149.036;2023-08-06T04:04:27;1.90;;;1.60;;
40022;SDS011;25713;-35.352;149.036;2023-08-06T04:06:58;2.15;;;1.40;;
40022;SDS011;25713;-35.352;149.036;2023-08-06T04:09:28;1.42;;;1.20;;
40022;SDS011;25713;-35.352;149.036;2023-08-06T04:11:58;2.15;;;1.30;;
40022;SDS011;25713;-35.352;149.036;2023-08-06T04:14:27;2.15;;;1.38;;
40022;SDS011;25713;-35.352;149.036;2023-08-06T04:16:58;2.00;;;1.20;;
40022;SDS011;25713;-35.352;149.036;2023-08-06T04:19:27;1.67;;;1.30;;
40022;SDS011;25713;-35.352;149.036;2023-08-06T04:21:59;1.70;;;1.20;;
40022;SDS011;25713;-35.352;149.036;2023-08-06T04:24:28;1.57;;;1.30;;
40022;SDS011;25713;-35.352;149.036;2023-08-06T04:26:58;2.10;;;1.40;;
40022;SDS011;25713;-35.352;149.036;2023-08-06T04:29:28;2.55;;;1.45;;
40022;SDS011;25713;-35.352;149.036;2023-08-06T04:31:59;1.85;;;1.50;;
40022;SDS011;25713;-35.352;149.036;2023-08-06T04:34:29;2.30;;;1.40;;
40022;SDS011;25713;-35.352;149.036;2023-08-06T04:37:01;1.30;;;1.20;;
40022;SDS011;25713;-35.352;149.036;2023-08-06T04:39:31;1.63;;;1.33;;
40022;SDS011;25713;-35.352;149.036;2023-08-06T04:42:00;2.13;;;1.50;;
40022;SDS011;25713;-35.352;149.036;2023-08-06T04:44:30;3.97;;;1.52;;
40022;SDS011;25713;-35.352;149.036;2023-08-06T04:46:59;2.72;;;1.70;;
40022;SDS011;25713;-35.352;149.036;2023-08-06T04:49:29;1.98;;;1.40;;
40022;SDS011;25713;-35.352;149.036;2023-08-06T04:52:00;1.65;;;1.33;;
40022;SDS011;25713;-35.352;149.036;2023-08-06T04:54:30;1.80;;;1.30;;
40022;SDS011;25713;-35.352;149.036;2023-08-06T04:56:59;1.50;;;1.30;;
40022;SDS011;25713;-35.352;149.036;2023-08-06T04:59:29;2.30;;;1.30;;
40022;SDS011;25713;-35.352;149.036;2023-08-06T05:01:58;1.98;;;1.38;;
40022;SDS011;25713;-35.352;149.036;2023-08-06T05:04:27;1.40;;;1.30;;
40022;SDS011;25713;-35.352;149.036;2023-08-06T05:06:57;1.58;;;1.20;;
40022;SDS011;25713;-35.352;149.036;2023-08-06T05:09:28;1.38;;;1.10;;
40022;SDS011;25713;-35.352;149.036;2023-08-06T05:11:58;1.67;;;1.23;;
40022;SDS011;25713;-35.352;149.036;2023-08-06T05:14:28;3.45;;;1.38;;
40022;SDS011;25713;-35.352;149.036;2023-08-06T05:16:58;1.65;;;1.25;;
40022;SDS011;25713;-35.352;149.036;2023-08-06T05:19:27;2.30;;;1.20;;
40022;SDS011;25713;-35.352;149.036;2023-08-06T05:21:57;1.30;;;1.15;;
40022;SDS011;25713;-35.352;149.036;2023-08-06T05:24:28;1.95;;;1.30;;
40022;SDS011;25713;-35.352;149.036;2023-08-06T05:26:57;1.45;;;1.10;;
40022;SDS011;25713;-35.352;149.036;2023-08-06T05:29:27;1.83;;;1.33;;
40022;SDS011;25713;-35.352;149.036;2023-08-06T05:31:56;1.25;;;1.10;;
40022;SDS011;25713;-35.352;149.036;2023-08-06T05:34:25;3.00;;;1.05;;
40022;SDS011;25713;-35.352;149.036;2023-08-06T05:36:55;1.65;;;1.30;;
40022;SDS011;25713;-35.352;149.036;2023-08-06T05:39:26;1.73;;;1.13;;
40022;SDS011;25713;-35.352;149.036;2023-08-06T05:41:56;1.77;;;1.10;;
40022;SDS011;25713;-35.352;149.036;2023-08-06T05:44:25;1.80;;;1.20;;
40022;SDS011;25713;-35.352;149.036;2023-08-06T05:46:54;1.27;;;1.05;;
40022;SDS011;25713;-35.352;149.036;2023-08-06T05:49:24;1.95;;;1.13;;
40022;SDS011;25713;-35.352;149.036;2023-08-06T05:51:53;2.67;;;1.20;;
40022;SDS011;25713;-35.352;149.036;2023-08-06T05:54:23;2.35;;;1.20;;
40022;SDS011;25713;-35.352;149.036;2023-08-06T05:56:54;1.25;;;1.15;;
40022;SDS011;25713;-35.352;149.036;2023-08-06T05:59:23;1.20;;;1.10;;
40022;SDS011;25713;-35.352;149.036;2023-08-06T06:01:53;1.20;;;1.00;;
40022;SDS011;25713;-35.352;149.036;2023-08-06T06:04:22;1.30;;;1.20;;
40022;SDS011;25713;-35.352;149.036;2023-08-06T06:06:52;1.58;;;1.30;;
40022;SDS011;25713;-35.352;149.036;2023-08-06T06:09:22;2.85;;;1.10;;
40022;SDS011;25713;-35.352;149.036;2023-08-06T06:11:53;1.40;;;1.00;;
40022;SDS011;25713;-35.352;149.036;2023-08-06T06:14:23;1.20;;;1.02;;
40022;SDS011;25713;-35.352;149.036;2023-08-06T06:16:52;1.30;;;1.20;;
40022;SDS011;25713;-35.352;149.036;2023-08-06T06:19:21;1.98;;;1.15;;
40022;SDS011;25713;-35.352;149.036;2023-08-06T06:21:51;2.88;;;1.20;;
40022;SDS011;25713;-35.352;149.036;2023-08-06T06:24:20;1.33;;;1.10;;
40022;SDS011;25713;-35.352;149.036;2023-08-06T06:26:50;2.00;;;1.10;;
40022;SDS011;25713;-35.352;149.036;2023-08-06T06:29:21;1.55;;;1.13;;
40022;SDS011;25713;-35.352;149.036;2023-08-06T06:31:51;1.25;;;1.15;;
40022;SDS011;25713;-35.352;149.036;2023-08-06T06:34:20;1.67;;;1.38;;
40022;SDS011;25713;-35.352;149.036;2023-08-06T06:36:50;1.85;;;1.58;;
40022;SDS011;25713;-35.352;149.036;2023-08-06T06:39:20;1.60;;;1.10;;
40022;SDS011;25713;-35.352;149.036;2023-08-06T06:41:50;1.80;;;1.15;;
40022;SDS011;25713;-35.352;149.036;2023-08-06T06:44:30;1.40;;;1.20;;
40022;SDS011;25713;-35.352;149.036;2023-08-06T06:46:59;1.73;;;1.20;;
40022;SDS011;25713;-35.352;149.036;2023-08-06T06:49:28;1.20;;;1.10;;
40022;SDS011;25713;-35.352;149.036;2023-08-06T06:51:58;1.15;;;1.05;;
40022;SDS011;25713;-35.352;149.036;2023-08-06T06:54:27;1.95;;;1.20;;
40022;SDS011;25713;-35.352;149.036;2023-08-06T06:56:59;1.40;;;1.30;;
40022;SDS011;25713;-35.352;149.036;2023-08-06T06:59:28;1.73;;;1.15;;
40022;SDS011;25713;-35.352;149.036;2023-08-06T07:01:57;2.15;;;1.25;;
40022;SDS011;25713;-35.352;149.036;2023-08-06T07:04:27;2.08;;;1.30;;
40022;SDS011;25713;-35.352;149.036;2023-08-06T07:06:56;1.92;;;1.38;;
40022;SDS011;25713;-35.352;149.036;2023-08-06T07:09:25;1.60;;;1.30;;
40022;SDS011;25713;-35.352;149.036;2023-08-06T07:11:55;1.63;;;1.30;;
40022;SDS011;25713;-35.352;149.036;2023-08-06T07:14:28;1.58;;;1.20;;
40022;SDS011;25713;-35.352;149.036;2023-08-06T07:16:58;1.20;;;1.10;;
40022;SDS011;25713;-35.352;149.036;2023-08-06T07:19:27;2.33;;;1.20;;
40022;SDS011;25713;-35.352;149.036;2023-08-06T07:21:56;1.75;;;1.13;;
40022;SDS011;25713;-35.352;149.036;2023-08-06T07:24:26;2.63;;;1.40;;
40022;SDS011;25713;-35.352;149.036;2023-08-06T07:26:55;1.38;;;1.20;;
40022;SDS011;25713;-35.352;149.036;2023-08-06T07:29:26;1.73;;;1.20;;
40022;SDS011;25713;-35.352;149.036;2023-08-06T07:31:56;1.45;;;1.30;;
40022;SDS011;25713;-35.352;149.036;2023-08-06T07:34:26;1.90;;;1.30;;
40022;SDS011;25713;-35.352;149.036;2023-08-06T07:36:55;3.10;;;1.38;;
40022;SDS011;25713;-35.352;149.036;2023-08-06T07:39:25;1.42;;;1.30;;
40022;SDS011;25713;-35.352;149.036;2023-08-06T07:41:54;2.30;;;1.55;;
40022;SDS011;25713;-35.352;149.036;2023-08-06T07:44:26;2.13;;;1.60;;
40022;SDS011;25713;-35.352;149.036;2023-08-06T07:46:55;1.98;;;1.77;;
40022;SDS011;25713;-35.352;149.036;2023-08-06T07:49:25;2.92;;;1.73;;
40022;SDS011;25713;-35.352;149.036;2023-08-06T07:51:54;2.58;;;2.00;;
40022;SDS011;25713;-35.352;149.036;2023-08-06T07:54:24;2.78;;;1.83;;
40022;SDS011;25713;-35.352;149.036;2023-08-06T07:56:53;3.13;;;2.10;;
40022;SDS011;25713;-35.352;149.036;2023-08-06T07:59:23;3.00;;;1.77;;
40022;SDS011;25713;-35.352;149.036;2023-08-06T08:01:54;2.03;;;1.83;;
40022;SDS011;25713;-35.352;149.036;2023-08-06T08:04:24;2.38;;;2.05;;
40022;SDS011;25713;-35.352;149.036;2023-08-06T08:06:53;2.72;;;2.30;;
40022;SDS011;25713;-35.352;149.036;2023-08-06T08:09:23;2.55;;;1.92;;
40022;SDS011;25713;-35.352;149.036;2023-08-06T08:11:52;3.65;;;2.13;;
40022;SDS011;25713;-35.352;149.036;2023-08-06T08:14:22;3.35;;;2.28;;
40022;SDS011;25713;-35.352;149.036;2023-08-06T08:16:53;3.00;;;2.25;;
40022;SDS011;25713;-35.352;149.036;2023-08-06T08:19:22;3.85;;;2.50;;
40022;SDS011;25713;-35.352;149.036;2023-08-06T08:21:52;2.70;;;2.28;;
40022;SDS011;25713;-35.352;149.036;2023-08-06T08:24:21;3.15;;;2.70;;
40022;SDS011;25713;-35.352;149.036;2023-08-06T08:26:51;3.35;;;2.90;;
40022;SDS011;25713;-35.352;149.036;2023-08-06T08:29:21;3.40;;;2.92;;
40022;SDS011;25713;-35.352;149.036;2023-08-06T08:31:50;3.20;;;2.83;;
40022;SDS011;25713;-35.352;149.036;2023-08-06T08:34:21;4.50;;;3.00;;
40022;SDS011;25713;-35.352;149.036;2023-08-06T08:36:51;5.53;;;2.95;;
40022;SDS011;25713;-35.352;149.036;2023-08-06T08:39:20;3.85;;;2.80;;
40022;SDS011;25713;-35.352;149.036;2023-08-06T08:41:50;3.45;;;2.92;;
40022;SDS011;25713;-35.352;149.036;2023-08-06T08:44:19;4.18;;;2.80;;
40022;SDS011;25713;-35.352;149.036;2023-08-06T08:46:49;4.20;;;3.00;;
40022;SDS011;25713;-35.352;149.036;2023-08-06T08:49:20;3.83;;;2.83;;
40022;SDS011;25713;-35.352;149.036;2023-08-06T08:51:51;3.78;;;2.65;;
40022;SDS011;25713;-35.352;149.036;2023-08-06T08:54:22;4.63;;;2.78;;
40022;SDS011;25713;-35.352;149.036;2023-08-06T08:56:52;4.90;;;2.75;;
40022;SDS011;25713;-35.352;149.036;2023-08-06T08:59:22;4.82;;;3.00;;
40022;SDS011;25713;-35.352;149.036;2023-08-06T09:01:51;3.28;;;2.83;;
40022;SDS011;25713;-35.352;149.036;2023-08-06T09:04:25;4.40;;;2.78;;
40022;SDS011;25713;-35.352;149.036;2023-08-06T09:06:57;4.32;;;3.17;;
40022;SDS011;25713;-35.352;149.036;2023-08-06T09:09:28;3.92;;;3.05;;
40022;SDS011;25713;-35.352;149.036;2023-08-06T09:12:00;4.95;;;3.30;;
40022;SDS011;25713;-35.352;149.036;2023-08-06T09:14:33;3.80;;;3.08;;
40022;SDS011;25713;-35.352;149.036;2023-08-06T09:17:04;3.92;;;3.10;;
40022;SDS011;25713;-35.352;149.036;2023-08-06T09:19:36;3.60;;;2.90;;
40022;SDS011;25713;-35.352;149.036;2023-08-06T09:22:09;4.47;;;3.30;;
40022;SDS011;25713;-35.352;149.036;2023-08-06T09:24:41;3.45;;;2.60;;
40022;SDS011;25713;-35.352;149.036;2023-08-06T09:27:13;2.63;;;2.28;;
40022;SDS011;25713;-35.352;149.036;2023-08-06T09:29:44;3.28;;;2.38;;
40022;SDS011;25713;-35.352;149.036;2023-08-06T09:32:14;3.80;;;2.90;;
40022;SDS011;25713;-35.352;149.036;2023-08-06T09:34:45;2.97;;;2.47;;
40022;SDS011;25713;-35.352;149.036;2023-08-06T09:37:22;5.68;;;2.70;;
40022;SDS011;25713;-35.352;149.036;2023-08-06T09:39:52;4.35;;;2.92;;
40022;SDS011;25713;-35.352;149.036;2023-08-06T09:42:22;2.78;;;2.45;;
40022;SDS011;25713;-35.352;149.036;2023-08-06T09:44:51;3.75;;;2.67;;
40022;SDS011;25713;-35.352;149.036;2023-08-06T09:47:24;3.50;;;2.55;;
40022;SDS011;25713;-35.352;149.036;2023-08-06T09:49:55;4.68;;;2.80;;
40022;SDS011;25713;-35.352;149.036;2023-08-06T09:52:25;4.85;;;2.90;;
40022;SDS011;25713;-35.352;149.036;2023-08-06T09:54:55;3.28;;;2.30;;
40022;SDS011;25713;-35.352;149.036;2023-08-06T09:57:25;5.35;;;2.65;;
40022;SDS011;25713;-35.352;149.036;2023-08-06T09:59:55;4.38;;;2.60;;
40022;SDS011;25713;-35.352;149.036;2023-08-06T10:02:24;5.00;;;2.58;;
40022;SDS011;25713;-35.352;149.036;2023-08-06T10:04:59;2.67;;;2.47;;
40022;SDS011;25713;-35.352;149.036;2023-08-06T10:07:29;2.72;;;2.10;;
40022;SDS011;25713;-35.352;149.036;2023-08-06T10:10:00;3.95;;;2.50;;
40022;SDS011;25713;-35.352;149.036;2023-08-06T10:12:31;3.20;;;2.10;;
40022;SDS011;25713;-35.352;149.036;2023-08-06T10:15:04;3.17;;;2.40;;
40022;SDS011;25713;-35.352;149.036;2023-08-06T10:17:37;4.70;;;2.53;;
40022;SDS011;25713;-35.352;149.036;2023-08-06T10:20:11;4.38;;;2.50;;
40022;SDS011;25713;-35.352;149.036;2023-08-06T10:22:42;3.40;;;2.58;;
40022;SDS011;25713;-35.352;149.036;2023-08-06T10:25:15;2.95;;;2.40;;
40022;SDS011;25713;-35.352;149.036;2023-08-06T10:27:53;5.95;;;3.00;;
40022;SDS011;25713;-35.352;149.036;2023-08-06T10:30:23;3.47;;;2.50;;
40022;SDS011;25713;-35.352;149.036;2023-08-06T10:32:53;4.10;;;2.30;;
40022;SDS011;25713;-35.352;149.036;2023-08-06T10:35:34;3.05;;;2.40;;
40022;SDS011;25713;-35.352;149.036;2023-08-06T10:38:05;4.28;;;2.25;;
40022;SDS011;25713;-35.352;149.036;2023-08-06T10:40:36;5.07;;;2.67;;
40022;SDS011;25713;-35.352;149.036;2023-08-06T10:43:08;3.72;;;2.40;;
40022;SDS011;25713;-35.352;149.036;2023-08-06T10:45:52;4.13;;;2.30;;
40022;SDS011;25713;-35.352;149.036;2023-08-06T10:48:31;3.85;;;2.42;;
40022;SDS011;25713;-35.352;149.036;2023-08-06T10:51:08;3.47;;;2.10;;
40022;SDS011;25713;-35.352;149.036;2023-08-06T10:53:41;5.30;;;2.50;;
40022;SDS011;25713;-35.352;149.036;2023-08-06T10:58:42;3.08;;;2.22;;
40022;SDS011;25713;-35.352;149.036;2023-08-06T11:01:13;2.97;;;2.00;;
40022;SDS011;25713;-35.352;149.036;2023-08-06T11:03:42;2.67;;;2.10;;
40022;SDS011;25713;-35.352;149.036;2023-08-06T11:06:19;4.03;;;2.03;;
40022;SDS011;25713;-35.352;149.036;2023-08-06T11:08:49;2.40;;;1.73;;
40022;SDS011;25713;-35.352;149.036;2023-08-06T11:11:19;3.17;;;1.92;;
40022;SDS011;25713;-35.352;149.036;2023-08-06T11:13:50;2.67;;;1.88;;
40022;SDS011;25713;-35.352;149.036;2023-08-06T11:16:20;2.00;;;1.77;;
40022;SDS011;25713;-35.352;149.036;2023-08-06T11:18:51;3.00;;;1.85;;
40022;SDS011;25713;-35.352;149.036;2023-08-06T11:21:23;2.10;;;1.88;;
40022;SDS011;25713;-35.352;149.036;2023-08-06T11:23:53;3.22;;;1.90;;
40022;SDS011;25713;-35.352;149.036;2023-08-06T11:26:23;2.78;;;1.83;;
40022;SDS011;25713;-35.352;149.036;2023-08-06T11:28:52;3.58;;;2.40;;
40022;SDS011;25713;-35.352;149.036;2023-08-06T11:31:22;2.35;;;1.95;;
40022;SDS011;25713;-35.352;149.036;2023-08-06T11:33:52;3.22;;;1.88;;
40022;SDS011;25713;-35.352;149.036;2023-08-06T11:36:32;2.25;;;1.90;;
40022;SDS011;25713;-35.352;149.036;2023-08-06T11:39:02;2.00;;;1.73;;
40022;SDS011;25713;-35.352;149.036;2023-08-06T11:41:32;2.03;;;1.83;;
40022;SDS011;25713;-35.352;149.036;2023-08-06T11:44:03;2.38;;;1.92;;
40022;SDS011;25713;-35.352;149.036;2023-08-06T11:49:19;2.78;;;1.92;;
40022;SDS011;25713;-35.352;149.036;2023-08-06T11:51:52;4.65;;;2.08;;
40022;SDS011;25713;-35.352;149.036;2023-08-06T11:54:30;3.55;;;2.47;;
40022;SDS011;25713;-35.352;149.036;2023-08-06T11:57:00;3.05;;;2.25;;
40022;SDS011;25713;-35.352;149.036;2023-08-06T11:59:29;4.28;;;2.63;;
40022;SDS011;25713;-35.352;149.036;2023-08-06T12:02:00;4.53;;;2.63;;
40022;SDS011;25713;-35.352;149.036;2023-08-06T12:04:30;4.07;;;2.63;;
40022;SDS011;25713;-35.352;149.036;2023-08-06T12:07:09;3.92;;;2.42;;
40022;SDS011;25713;-35.352;149.036;2023-08-06T12:09:38;4.43;;;2.83;;
40022;SDS011;25713;-35.352;149.036;2023-08-06T12:12:08;5.30;;;3.08;;
40022;SDS011;25713;-35.352;149.036;2023-08-06T12:14:37;4.32;;;3.00;;
40022;SDS011;25713;-35.352;149.036;2023-08-06T12:17:07;5.38;;;2.92;;
40022;SDS011;25713;-35.352;149.036;2023-08-06T12:19:36;4.82;;;2.90;;
40022;SDS011;25713;-35.352;149.036;2023-08-06T12:22:08;4.15;;;3.00;;
40022;SDS011;25713;-35.352;149.036;2023-08-06T12:24:37;6.32;;;3.22;;
40022;SDS011;25713;-35.352;149.036;2023-08-06T12:27:07;3.42;;;2.70;;
40022;SDS011;25713;-35.352;149.036;2023-08-06T12:29:37;3.90;;;3.17;;
40022;SDS011;25713;-35.352;149.036;2023-08-06T12:32:09;3.72;;;2.67;;
40022;SDS011;25713;-35.352;149.036;2023-08-06T12:34:38;4.10;;;2.90;;
40022;SDS011;25713;-35.352;149.036;2023-08-06T12:37:10;4.68;;;2.95;;
40022;SDS011;25713;-35.352;149.036;2023-08-06T12:39:40;3.53;;;2.70;;
40022;SDS011;25713;-35.352;149.036;2023-08-06T12:42:09;5.63;;;2.97;;
40022;SDS011;25713;-35.352;149.036;2023-08-06T12:44:39;3.85;;;2.47;;
40022;SDS011;25713;-35.352;149.036;2023-08-06T12:47:08;5.10;;;2.72;;
40022;SDS011;25713;-35.352;149.036;2023-08-06T12:49:38;4.13;;;2.50;;
40022;SDS011;25713;-35.352;149.036;2023-08-06T12:52:09;4.25;;;2.90;;
40022;SDS011;25713;-35.352;149.036;2023-08-06T12:54:39;5.10;;;2.80;;
40022;SDS011;25713;-35.352;149.036;2023-08-06T12:57:08;5.55;;;3.53;;
40022;SDS011;25713;-35.352;149.036;2023-08-06T12:59:38;3.70;;;2.78;;
40022;SDS011;25713;-35.352;149.036;2023-08-06T13:02:07;5.65;;;3.25;;
40022;SDS011;25713;-35.352;149.036;2023-08-06T13:04:37;4.97;;;3.10;;
40022;SDS011;25713;-35.352;149.036;2023-08-06T13:07:06;4.55;;;3.13;;
40022;SDS011;25713;-35.352;149.036;2023-08-06T13:09:38;5.70;;;3.25;;
40022;SDS011;25713;-35.352;149.036;2023-08-06T13:12:07;3.95;;;3.03;;
40022;SDS011;25713;-35.352;149.036;2023-08-06T13:14:36;6.32;;;3.47;;
40022;SDS011;25713;-35.352;149.036;2023-08-06T13:17:06;5.28;;;3.40;;
40022;SDS011;25713;-35.352;149.036;2023-08-06T13:19:35;3.83;;;3.10;;
40022;SDS011;25713;-35.352;149.036;2023-08-06T13:22:05;4.43;;;3.08;;
40022;SDS011;25713;-35.352;149.036;2023-08-06T13:24:37;5.80;;;2.95;;
40022;SDS011;25713;-35.352;149.036;2023-08-06T13:27:06;4.20;;;2.95;;
40022;SDS011;25713;-35.352;149.036;2023-08-06T13:29:35;6.50;;;3.00;;
40022;SDS011;25713;-35.352;149.036;2023-08-06T13:32:05;4.40;;;3.10;;
40022;SDS011;25713;-35.352;149.036;2023-08-06T13:34:35;3.95;;;2.55;;
40022;SDS011;25713;-35.352;149.036;2023-08-06T13:37:04;4.35;;;3.00;;
40022;SDS011;25713;-35.352;149.036;2023-08-06T13:39:33;4.10;;;2.80;;
40022;SDS011;25713;-35.352;149.036;2023-08-06T13:42:05;4.47;;;3.00;;
40022;SDS011;25713;-35.352;149.036;2023-08-06T13:44:35;3.78;;;2.90;;
40022;SDS011;25713;-35.352;149.036;2023-08-06T13:47:04;5.50;;;3.13;;
40022;SDS011;25713;-35.352;149.036;2023-08-06T13:49:34;4.43;;;2.97;;
40022;SDS011;25713;-35.352;149.036;2023-08-06T13:52:03;5.85;;;3.05;;
40022;SDS011;25713;-35.352;149.036;2023-08-06T13:54:33;5.03;;;2.85;;
40022;SDS011;25713;-35.352;149.036;2023-08-06T13:57:04;4.15;;;2.90;;
40022;SDS011;25713;-35.352;149.036;2023-08-06T13:59:34;4.68;;;2.67;;
40022;SDS011;25713;-35.352;149.036;2023-08-06T14:02:03;3.75;;;2.72;;
40022;SDS011;25713;-35.352;149.036;2023-08-06T14:04:33;4.65;;;2.90;;
40022;SDS011;25713;-35.352;149.036;2023-08-06T14:07:02;5.50;;;3.63;;
40022;SDS011;25713;-35.352;149.036;2023-08-06T14:09:32;4.78;;;3.05;;
40022;SDS011;25713;-35.352;149.036;2023-08-06T14:12:04;4.95;;;3.00;;
40022;SDS011;25713;-35.352;149.036;2023-08-06T14:14:33;6.07;;;3.40;;
40022;SDS011;25713;-35.352;149.036;2023-08-06T14:17:03;6.53;;;3.70;;
40022;SDS011;25713;-35.352;149.036;2023-08-06T14:19:32;6.18;;;3.58;;
40022;SDS011;25713;-35.352;149.036;2023-08-06T14:22:02;4.75;;;3.05;;
40022;SDS011;25713;-35.352;149.036;2023-08-06T14:24:31;4.13;;;2.67;;
40022;SDS011;25713;-35.352;149.036;2023-08-06T14:27:01;4.05;;;2.97;;
40022;SDS011;25713;-35.352;149.036;2023-08-06T14:29:33;4.30;;;2.80;;
40022;SDS011;25713;-35.352;149.036;2023-08-06T14:32:02;5.03;;;2.90;;
40022;SDS011;25713;-35.352;149.036;2023-08-06T14:34:32;6.30;;;3.30;;
40022;SDS011;25713;-35.352;149.036;2023-08-06T14:37:01;5.65;;;2.88;;